createdAt,value
2022-10-22T00:00:56.455Z,13.03
2022-10-22T00:01:56.340Z,13.04
2022-10-22T00:02:56.854Z,13.04
2022-10-22T00:03:56.471Z,13.06
2022-10-22T00:04:56.308Z,13.06
2022-10-22T00:05:58.223Z,13.09
2022-10-22T00:06:56.051Z,13.09
2022-10-22T00:07:56.087Z,13.06
2022-10-22T00:08:55.852Z,13.09
2022-10-22T00:09:57.701Z,13.09
2022-10-22T00:10:56.402Z,13.07
2022-10-22T00:11:55.959Z,13.09
2022-10-22T00:12:56.312Z,13.09
2022-10-22T00:13:55.819Z,13.07
2022-10-22T00:14:55.486Z,13.09
2022-10-22T00:15:55.719Z,13.09
2022-10-22T00:16:55.595Z,13.09
2022-10-22T00:17:55.586Z,13.09
2022-10-22T00:18:55.753Z,13.10
2022-10-22T00:19:55.417Z,13.09
2022-10-22T00:20:55.650Z,13.09
2022-10-22T00:21:55.467Z,13.07
2022-10-22T00:22:55.822Z,13.06
2022-10-22T00:23:55.368Z,13.09
2022-10-22T00:24:55.590Z,13.07
2022-10-22T00:25:55.439Z,13.07
2022-10-22T00:26:55.507Z,13.07
2022-10-22T00:27:55.414Z,13.07
2022-10-22T00:28:55.412Z,13.06
2022-10-22T00:29:55.419Z,13.07
2022-10-22T00:30:55.439Z,13.09
2022-10-22T00:32:55.352Z,13.06
2022-10-22T00:33:55.218Z,13.06
2022-10-22T00:34:55.289Z,13.06
2022-10-22T00:35:55.286Z,13.04
2022-10-22T00:36:55.171Z,13.04
2022-10-22T00:37:55.133Z,13.01
2022-10-22T00:38:55.082Z,13.01
2022-10-22T00:39:55.131Z,13.01
2022-10-22T00:40:55.225Z,13.03
2022-10-22T00:41:55.202Z,13.03
2022-10-22T00:42:55.075Z,13.03
2022-10-22T00:43:55.259Z,13.03
2022-10-22T00:44:55.049Z,13.04
2022-10-22T00:45:55.351Z,13.04
2022-10-22T00:46:55.253Z,13.03
2022-10-22T00:47:55.052Z,13.03
2022-10-22T00:48:55.048Z,13.03
2022-10-22T00:49:55.159Z,12.99
2022-10-22T00:50:55.151Z,13.01
2022-10-22T00:51:55.015Z,13.01
2022-10-22T00:52:55.065Z,13.01
2022-10-22T00:53:55.028Z,13.03
2022-10-22T00:54:55.003Z,13.03
2022-10-22T00:55:55.180Z,13.01
2022-10-22T00:56:55.185Z,13.01
2022-10-22T00:57:55.303Z,13.01
2022-10-22T00:58:55.078Z,13.03
2022-10-22T00:59:54.897Z,13.03
2022-10-22T01:00:55.395Z,13.03
2022-10-22T01:01:54.931Z,13.01
2022-10-22T01:02:56.797Z,13.03
2022-10-22T01:03:55.037Z,13.03
2022-10-22T01:04:54.847Z,13.06
2022-10-22T01:05:55.748Z,13.07
2022-10-22T01:06:54.865Z,13.07
2022-10-22T01:07:54.897Z,13.07
2022-10-22T01:08:55.095Z,13.09
2022-10-22T01:09:54.935Z,13.10
2022-10-22T01:10:54.969Z,13.12
2022-10-22T01:11:54.883Z,13.12
2022-10-22T01:12:54.801Z,13.12
2022-10-22T01:13:55.366Z,13.13
2022-10-22T01:14:54.815Z,13.14
2022-10-22T01:15:54.728Z,13.13
2022-10-22T01:16:54.912Z,13.13
2022-10-22T01:17:54.806Z,13.12
2022-10-22T01:18:54.709Z,13.13
2022-10-22T01:19:54.742Z,13.12
2022-10-22T01:20:54.645Z,13.12
2022-10-22T01:21:54.671Z,13.12
2022-10-22T01:22:54.546Z,13.13
2022-10-22T01:23:54.692Z,13.10
2022-10-22T01:24:54.586Z,13.12
2022-10-22T01:25:54.685Z,13.12
2022-10-22T01:26:54.570Z,13.12
2022-10-22T01:27:54.664Z,13.13
2022-10-22T01:28:54.484Z,13.12
2022-10-22T01:29:54.505Z,13.10
2022-10-22T01:30:54.488Z,13.10
2022-10-22T01:31:54.761Z,13.10
2022-10-22T01:32:54.500Z,13.09
2022-10-22T01:33:54.401Z,13.09
2022-10-22T01:34:54.435Z,13.07
2022-10-22T01:35:54.386Z,13.07
2022-10-22T01:36:54.476Z,13.06
2022-10-22T01:37:54.348Z,13.06
2022-10-22T01:38:54.353Z,13.06
2022-10-22T01:39:54.370Z,13.04
2022-10-22T01:40:54.426Z,13.03
2022-10-22T01:41:54.423Z,13.03
2022-10-22T01:42:54.371Z,12.99
2022-10-22T01:43:54.306Z,12.98
2022-10-22T01:44:54.400Z,12.98
2022-10-22T01:45:54.516Z,12.98
2022-10-22T01:46:54.516Z,12.95
2022-10-22T01:47:54.305Z,12.95
2022-10-22T01:48:54.266Z,12.94
2022-10-22T01:49:54.217Z,12.92
2022-10-22T01:50:54.208Z,12.92
2022-10-22T01:51:54.231Z,12.91
2022-10-22T01:52:54.267Z,12.91
2022-10-22T01:53:54.219Z,12.91
2022-10-22T01:54:54.205Z,12.88
2022-10-22T01:55:54.254Z,12.88
2022-10-22T01:56:54.216Z,12.87
2022-10-22T01:57:54.197Z,12.85
2022-10-22T01:58:54.221Z,12.87
2022-10-22T01:59:54.135Z,12.84
2022-10-22T02:00:54.345Z,12.81
2022-10-22T02:01:54.150Z,12.79
2022-10-22T02:02:54.234Z,12.77
2022-10-22T02:03:54.144Z,12.77
2022-10-22T02:04:54.164Z,12.74
2022-10-22T02:05:54.101Z,12.74
2022-10-22T02:06:54.055Z,12.73
2022-10-22T02:07:54.263Z,12.73
2022-10-22T02:08:54.052Z,12.73
2022-10-22T02:09:54.055Z,12.71
2022-10-22T02:10:54.144Z,12.70
2022-10-22T02:11:54.147Z,12.70
2022-10-22T02:12:53.952Z,12.67
2022-10-22T02:13:53.908Z,12.67
2022-10-22T02:14:53.939Z,12.67
2022-10-22T02:15:53.901Z,12.67
2022-10-22T02:16:54.445Z,12.66
2022-10-22T02:17:53.939Z,12.66
2022-10-22T02:18:53.973Z,12.66
2022-10-22T02:19:53.963Z,12.62
2022-10-22T02:20:53.813Z,12.62
2022-10-22T02:21:53.861Z,12.61
2022-10-22T02:22:53.826Z,12.61
2022-10-22T02:23:53.868Z,12.59
2022-10-22T02:24:53.890Z,12.58
2022-10-22T02:25:53.739Z,12.58
2022-10-22T02:26:53.782Z,12.58
2022-10-22T02:27:53.808Z,12.56
2022-10-22T02:28:53.949Z,12.55
2022-10-22T02:29:53.755Z,12.55
2022-10-22T02:30:53.849Z,12.54
2022-10-22T02:31:53.824Z,12.52
2022-10-22T02:32:53.734Z,12.52
2022-10-22T02:33:53.801Z,12.52
2022-10-22T02:34:53.669Z,12.48
2022-10-22T02:35:53.775Z,12.44
2022-10-22T02:36:53.677Z,12.43
2022-10-22T02:37:53.686Z,12.41
2022-10-22T02:38:53.714Z,12.43
2022-10-22T02:39:53.611Z,12.40
2022-10-22T02:40:53.666Z,12.38
2022-10-22T02:41:53.619Z,12.37
2022-10-22T02:42:53.528Z,12.37
2022-10-22T02:43:53.546Z,12.37
2022-10-22T02:44:53.747Z,12.37
2022-10-22T02:45:53.530Z,12.36
2022-10-22T02:46:53.618Z,12.36
2022-10-22T02:47:53.592Z,12.34
2022-10-22T02:48:53.532Z,12.36
2022-10-22T02:49:53.665Z,12.34
2022-10-22T02:50:53.581Z,12.34
2022-10-22T02:51:53.561Z,12.33
2022-10-22T02:52:53.586Z,12.30
2022-10-22T02:53:53.457Z,12.30
2022-10-22T02:54:53.460Z,12.29
2022-10-22T02:55:53.471Z,12.30
2022-10-22T02:56:53.586Z,12.26
2022-10-22T02:57:53.332Z,12.26
2022-10-22T02:58:53.353Z,12.25
2022-10-22T02:59:53.350Z,12.25
2022-10-22T03:00:53.355Z,12.23
2022-10-22T03:01:53.296Z,12.22
2022-10-22T03:02:53.423Z,12.21
2022-10-22T03:03:53.364Z,12.19
2022-10-22T03:04:53.276Z,12.18
2022-10-22T03:05:53.280Z,12.18
2022-10-22T03:06:53.261Z,12.18
2022-10-22T03:07:53.196Z,12.15
2022-10-22T03:08:53.403Z,12.15
2022-10-22T03:09:53.357Z,12.15
2022-10-22T03:10:53.198Z,12.12
2022-10-22T03:11:53.171Z,12.12
2022-10-22T03:12:53.229Z,12.12
2022-10-22T03:13:53.190Z,12.11
2022-10-22T03:14:53.136Z,12.08
2022-10-22T03:15:53.188Z,12.05
2022-10-22T03:16:53.148Z,12.03
2022-10-22T03:17:53.052Z,12.03
2022-10-22T03:18:53.206Z,12.01
2022-10-22T03:19:53.163Z,12.01
2022-10-22T03:20:53.142Z,11.98
2022-10-22T03:21:53.382Z,11.98
2022-10-22T03:22:53.094Z,11.97
2022-10-22T03:23:53.084Z,11.97
2022-10-22T03:24:53.079Z,11.97
2022-10-22T03:25:53.137Z,11.96
2022-10-22T03:26:53.078Z,11.96
2022-10-22T03:27:52.931Z,11.96
2022-10-22T03:28:53.005Z,11.93
2022-10-22T03:29:52.899Z,11.93
2022-10-22T03:30:52.890Z,11.93
2022-10-22T03:31:52.956Z,11.90
2022-10-22T03:32:52.950Z,11.88
2022-10-22T03:33:52.849Z,11.87
2022-10-22T03:34:53.090Z,11.85
2022-10-22T03:35:52.844Z,11.85
2022-10-22T03:36:52.863Z,11.85
2022-10-22T03:37:52.854Z,11.84
2022-10-22T03:38:52.838Z,11.84
2022-10-22T03:39:52.844Z,11.81
2022-10-22T03:40:52.781Z,11.82
2022-10-22T03:41:52.810Z,11.81
2022-10-22T03:42:52.863Z,11.79
2022-10-22T03:43:52.939Z,11.77
2022-10-22T03:44:52.910Z,11.75
2022-10-22T03:45:52.830Z,11.74
2022-10-22T03:46:52.812Z,11.74
2022-10-22T03:47:52.715Z,11.72
2022-10-22T03:48:52.768Z,11.72
2022-10-22T03:49:52.782Z,11.72
2022-10-22T03:50:52.758Z,11.67
2022-10-22T03:51:52.791Z,11.67
2022-10-22T03:52:52.689Z,11.67
2022-10-22T03:53:52.682Z,11.64
2022-10-22T03:54:52.558Z,11.64
2022-10-22T03:55:52.588Z,11.64
2022-10-22T03:56:52.609Z,11.63
2022-10-22T03:57:52.502Z,11.64
2022-10-22T03:58:52.571Z,11.63
2022-10-22T03:59:52.555Z,11.62
2022-10-22T04:00:52.554Z,11.62
2022-10-22T04:01:52.555Z,11.60
2022-10-22T04:02:52.436Z,11.60
2022-10-22T04:03:52.427Z,11.59
2022-10-22T04:04:52.537Z,11.59
2022-10-22T04:05:52.417Z,11.57
2022-10-22T04:06:52.483Z,11.57
2022-10-22T04:07:52.453Z,11.57
2022-10-22T04:08:52.576Z,11.54
2022-10-22T04:09:52.492Z,11.53
2022-10-22T04:10:52.366Z,11.48
2022-10-22T04:11:52.407Z,11.42
2022-10-22T04:12:52.373Z,11.39
2022-10-22T04:13:52.345Z,11.36
2022-10-22T04:14:52.389Z,11.36
2022-10-22T04:15:52.417Z,11.36
2022-10-22T04:16:52.352Z,11.38
2022-10-22T04:17:52.306Z,11.36
2022-10-22T04:18:52.256Z,11.36
2022-10-22T04:19:52.318Z,11.36
2022-10-22T04:20:52.237Z,11.36
2022-10-22T04:21:52.268Z,11.36
2022-10-22T04:22:52.158Z,11.35
2022-10-22T04:23:52.271Z,11.33
2022-10-22T04:24:52.228Z,11.33
2022-10-22T04:25:52.168Z,11.33
2022-10-22T04:26:52.167Z,11.33
2022-10-22T04:27:52.172Z,11.33
2022-10-22T04:28:52.197Z,11.35
2022-10-22T04:29:52.133Z,11.33
2022-10-22T04:30:52.166Z,11.31
2022-10-22T04:31:52.097Z,11.28
2022-10-22T04:32:52.105Z,11.27
2022-10-22T04:33:52.085Z,11.27
2022-10-22T04:34:52.186Z,11.27
2022-10-22T04:35:52.011Z,11.20
2022-10-22T04:36:52.135Z,11.13
2022-10-22T04:37:52.123Z,11.11
2022-10-22T04:38:52.005Z,11.11
2022-10-22T04:39:51.958Z,11.11
2022-10-22T04:40:52.043Z,11.12
2022-10-22T04:41:51.905Z,11.13
2022-10-22T04:42:51.935Z,11.16
2022-10-22T04:43:51.875Z,11.16
2022-10-22T04:44:51.956Z,11.17
2022-10-22T04:45:52.035Z,11.17
2022-10-22T04:46:51.902Z,11.17
2022-10-22T04:47:51.866Z,11.19
2022-10-22T04:48:51.909Z,11.20
2022-10-22T04:49:51.988Z,11.20
2022-10-22T04:50:51.856Z,11.19
2022-10-22T04:51:51.853Z,11.21
2022-10-22T04:52:52.765Z,11.21
2022-10-22T04:53:51.826Z,11.23
2022-10-22T04:54:51.878Z,11.23
2022-10-22T04:55:51.835Z,11.23
2022-10-22T04:56:51.792Z,11.21
2022-10-22T04:57:51.824Z,11.23
2022-10-22T04:58:51.722Z,11.23
2022-10-22T04:59:51.716Z,11.24
2022-10-22T05:00:51.795Z,11.26
2022-10-22T05:01:51.692Z,11.26
2022-10-22T05:02:51.684Z,11.24
2022-10-22T05:03:51.641Z,11.23
2022-10-22T05:04:51.656Z,11.21
2022-10-22T05:05:51.687Z,11.21
2022-10-22T05:06:51.682Z,11.21
2022-10-22T05:07:51.600Z,11.20
2022-10-22T05:08:51.589Z,11.19
2022-10-22T05:09:51.551Z,11.20
2022-10-22T05:10:51.621Z,11.19
2022-10-22T05:11:51.589Z,11.20
2022-10-22T05:12:51.551Z,11.20
2022-10-22T05:13:51.517Z,11.19
2022-10-22T05:14:51.549Z,11.19
2022-10-22T05:15:51.471Z,11.19
2022-10-22T05:16:51.545Z,11.19
2022-10-22T05:17:51.487Z,11.19
2022-10-22T05:18:51.468Z,11.19
2022-10-22T05:19:51.494Z,11.21
2022-10-22T05:20:51.442Z,11.20
2022-10-22T05:21:51.397Z,11.20
2022-10-22T05:22:51.380Z,11.19
2022-10-22T05:23:51.364Z,11.19
2022-10-22T05:24:51.425Z,11.19
2022-10-22T05:25:51.431Z,11.19
2022-10-22T05:26:51.407Z,11.17
2022-10-22T05:27:51.350Z,11.20
2022-10-22T05:28:51.456Z,11.17
2022-10-22T05:29:51.398Z,11.17
2022-10-22T05:30:51.402Z,11.21
2022-10-22T05:31:51.343Z,11.20
2022-10-22T05:32:51.297Z,11.19
2022-10-22T05:33:51.249Z,11.17
2022-10-22T05:34:51.256Z,11.17
2022-10-22T05:35:51.222Z,11.17
2022-10-22T05:36:51.289Z,11.16
2022-10-22T05:37:51.229Z,11.13
2022-10-22T05:38:51.282Z,11.13
2022-10-22T05:40:01.691Z,11.13
2022-10-22T05:40:52.250Z,11.12
2022-10-22T05:41:51.193Z,11.12
2022-10-22T05:42:51.160Z,11.12
2022-10-22T05:43:51.171Z,11.09
2022-10-22T05:44:51.153Z,11.11
2022-10-22T05:45:51.093Z,11.13
2022-10-22T05:46:51.090Z,11.12
2022-10-22T05:47:51.193Z,11.11
2022-10-22T05:48:51.087Z,11.09
2022-10-22T05:49:51.036Z,11.11
2022-10-22T05:50:51.056Z,11.11
2022-10-22T05:51:51.048Z,11.11
2022-10-22T05:52:50.991Z,11.09
2022-10-22T05:53:50.976Z,11.09
2022-10-22T05:54:51.195Z,11.09
2022-10-22T05:55:51.027Z,11.09
2022-10-22T05:56:51.007Z,11.08
2022-10-22T05:57:50.958Z,11.08
2022-10-22T05:58:51.150Z,11.08
2022-10-22T05:59:50.953Z,11.08
2022-10-22T06:00:50.911Z,11.09
2022-10-22T06:01:51.007Z,11.09
2022-10-22T06:02:50.925Z,11.11
2022-10-22T06:03:50.895Z,11.11
2022-10-22T06:04:51.087Z,11.09
2022-10-22T06:05:50.860Z,11.11
2022-10-22T06:06:50.779Z,11.09
2022-10-22T06:07:50.980Z,11.11
2022-10-22T06:08:50.946Z,11.09
2022-10-22T06:09:50.770Z,11.09
2022-10-22T06:10:50.818Z,11.09
2022-10-22T06:11:50.792Z,11.08
2022-10-22T06:12:50.850Z,11.08
2022-10-22T06:13:50.740Z,11.09
2022-10-22T06:14:50.773Z,11.09
2022-10-22T06:15:50.704Z,11.09
2022-10-22T06:16:50.712Z,11.12
2022-10-22T06:17:50.761Z,11.12
2022-10-22T06:18:50.743Z,11.12
2022-10-22T06:19:50.747Z,11.13
2022-10-22T06:20:50.787Z,11.16
2022-10-22T06:21:50.647Z,11.16
2022-10-22T06:22:50.657Z,11.19
2022-10-22T06:23:50.678Z,11.21
2022-10-22T06:24:50.637Z,11.26
2022-10-22T06:25:50.694Z,11.28
2022-10-22T06:26:50.536Z,11.35
2022-10-22T06:27:50.718Z,11.35
2022-10-22T06:28:50.526Z,11.35
2022-10-22T06:29:50.512Z,11.36
2022-10-22T06:30:50.663Z,11.38
2022-10-22T06:31:50.530Z,11.41
2022-10-22T06:32:50.483Z,11.42
2022-10-22T06:33:50.458Z,11.44
2022-10-22T06:34:50.462Z,11.44
2022-10-22T06:35:50.444Z,11.46
2022-10-22T06:36:50.400Z,11.49
2022-10-22T06:37:50.430Z,11.51
2022-10-22T06:38:50.392Z,11.53
2022-10-22T06:39:50.322Z,11.54
2022-10-22T06:40:50.389Z,11.54
2022-10-22T06:41:50.322Z,11.56
2022-10-22T06:42:51.117Z,11.57
2022-10-22T06:43:50.286Z,11.60
2022-10-22T06:44:50.350Z,11.62
2022-10-22T06:45:50.273Z,11.64
2022-10-22T06:46:50.284Z,11.67
2022-10-22T06:47:50.309Z,11.72
2022-10-22T06:48:50.263Z,11.72
2022-10-22T06:49:50.254Z,11.72
2022-10-22T06:50:50.238Z,11.72
2022-10-22T06:51:50.245Z,11.72
2022-10-22T06:52:50.202Z,11.74
2022-10-22T06:53:50.259Z,11.74
2022-10-22T06:54:50.238Z,11.75
2022-10-22T06:55:50.276Z,11.77
2022-10-22T06:56:50.205Z,11.79
2022-10-22T06:57:50.181Z,11.79
2022-10-22T06:58:50.190Z,11.82
2022-10-22T06:59:50.241Z,11.81
2022-10-22T07:00:50.120Z,11.84
2022-10-22T07:01:50.326Z,11.88
2022-10-22T07:02:50.094Z,11.94
2022-10-22T07:03:50.062Z,11.96
2022-10-22T07:04:50.083Z,11.94
2022-10-22T07:05:52.922Z,11.96
2022-10-22T07:06:50.066Z,12.00
2022-10-22T07:07:50.030Z,12.04
2022-10-22T07:08:50.011Z,12.05
2022-10-22T07:09:51.386Z,12.07
2022-10-22T07:10:50.063Z,12.07
2022-10-22T07:11:49.922Z,12.12
2022-10-22T07:12:49.989Z,12.12
2022-10-22T07:13:49.926Z,12.13
2022-10-22T07:14:49.890Z,12.13
2022-10-22T07:15:49.921Z,12.13
2022-10-22T07:16:49.945Z,12.13
2022-10-22T07:17:49.904Z,12.16
2022-10-22T07:18:49.982Z,12.19
2022-10-22T07:19:51.325Z,12.22
2022-10-22T07:20:49.993Z,12.25
2022-10-22T07:21:49.856Z,12.30
2022-10-22T07:22:49.955Z,12.34
2022-10-22T07:23:49.791Z,12.37
2022-10-22T07:24:49.860Z,12.38
2022-10-22T07:25:49.946Z,12.41
2022-10-22T07:26:49.748Z,12.44
2022-10-22T07:27:49.722Z,12.51
2022-10-22T07:28:49.729Z,12.56
2022-10-22T07:29:49.810Z,12.66
2022-10-22T07:30:49.807Z,12.71
2022-10-22T07:31:52.357Z,12.80
2022-10-22T07:32:50.460Z,12.87
2022-10-22T07:33:49.971Z,12.89
2022-10-22T07:34:49.700Z,12.91
2022-10-22T07:35:49.815Z,12.96
2022-10-22T07:36:49.681Z,13.01
2022-10-22T07:37:49.677Z,13.06
2022-10-22T07:38:49.829Z,13.12
2022-10-22T07:39:49.750Z,13.17
2022-10-22T07:40:49.981Z,13.24
2022-10-22T07:41:49.664Z,13.27
2022-10-22T07:42:49.603Z,13.28
2022-10-22T07:43:49.779Z,13.28
2022-10-22T07:44:49.752Z,13.29
2022-10-22T07:45:49.712Z,13.36
2022-10-22T07:46:49.619Z,13.46
2022-10-22T07:47:49.555Z,13.57
2022-10-22T07:48:49.516Z,13.65
2022-10-22T07:49:49.560Z,13.73
2022-10-22T07:50:49.555Z,13.86
2022-10-22T07:51:49.687Z,13.99
2022-10-22T07:52:49.672Z,14.09
2022-10-22T07:53:49.895Z,14.16
2022-10-22T07:54:49.990Z,14.12
2022-10-22T07:55:50.895Z,14.09
2022-10-22T07:56:50.081Z,14.11
2022-10-22T07:57:49.616Z,14.09
2022-10-22T07:58:50.153Z,14.08
2022-10-22T07:59:49.511Z,14.06
2022-10-22T08:00:49.725Z,14.06
2022-10-22T08:01:49.427Z,14.06
2022-10-22T08:02:49.596Z,14.06
2022-10-22T08:03:49.616Z,14.05
2022-10-22T08:04:49.527Z,14.05
2022-10-22T08:05:49.323Z,14.04
2022-10-22T08:06:49.356Z,14.04
2022-10-22T08:07:50.366Z,14.02
2022-10-22T08:08:49.436Z,14.04
2022-10-22T08:09:49.522Z,14.05
2022-10-22T08:10:49.892Z,14.04
2022-10-22T08:11:49.299Z,14.05
2022-10-22T08:12:49.359Z,14.09
2022-10-22T08:13:49.201Z,14.08
2022-10-22T08:14:49.360Z,14.11
2022-10-22T08:15:51.411Z,14.11
2022-10-22T08:16:49.604Z,14.09
2022-10-22T08:17:49.633Z,14.13
2022-10-22T08:18:50.379Z,14.23
2022-10-22T08:19:49.572Z,14.34
2022-10-22T08:20:49.546Z,14.46
2022-10-22T08:21:49.525Z,14.54
2022-10-22T08:22:49.139Z,14.56
2022-10-22T08:23:49.054Z,14.57
2022-10-22T08:24:49.110Z,14.59
2022-10-22T08:25:49.228Z,14.60
2022-10-22T08:26:49.003Z,14.61
2022-10-22T08:27:49.269Z,14.63
2022-10-22T08:28:49.008Z,14.64
2022-10-22T08:29:48.943Z,14.67
2022-10-22T08:30:49.175Z,14.75
2022-10-22T08:31:49.263Z,14.85
2022-10-22T08:32:53.029Z,14.93
2022-10-22T08:33:49.018Z,15.00
2022-10-22T08:34:49.822Z,15.07
2022-10-22T08:35:49.430Z,15.19
2022-10-22T08:36:49.051Z,15.28
2022-10-22T08:37:49.063Z,15.35
2022-10-22T08:38:51.508Z,15.38
2022-10-22T08:39:51.058Z,15.40
2022-10-22T08:40:50.709Z,15.40
2022-10-22T08:41:54.472Z,15.38
2022-10-22T08:42:49.214Z,15.40
2022-10-22T08:43:49.248Z,15.40
2022-10-22T08:44:52.964Z,15.40
2022-10-22T08:45:49.364Z,15.37
2022-10-22T08:46:48.929Z,15.38
2022-10-22T08:47:51.451Z,15.41
2022-10-22T08:48:48.999Z,15.48
2022-10-22T08:49:49.188Z,15.51
2022-10-22T08:50:49.204Z,15.53
2022-10-22T08:52:00.049Z,15.51
2022-10-22T08:52:51.360Z,15.49
2022-10-22T08:53:55.260Z,15.51
2022-10-22T08:54:51.206Z,15.52
2022-10-22T08:55:49.453Z,15.52
2022-10-22T08:56:54.254Z,15.48
2022-10-22T08:57:52.415Z,15.52
2022-10-22T08:58:49.094Z,15.53
2022-10-22T08:59:50.187Z,15.55
2022-10-22T09:00:51.001Z,15.55
2022-10-22T09:01:50.742Z,15.56
2022-10-22T09:02:50.088Z,15.56
2022-10-22T09:03:56.772Z,15.58
2022-10-22T09:06:17.401Z,15.62
2022-10-22T09:07:12.169Z,15.66
2022-10-22T09:08:18.387Z,15.68
2022-10-22T09:09:11.136Z,15.68
2022-10-22T09:10:15.319Z,15.73
2022-10-22T09:11:10.027Z,15.78
2022-10-22T09:12:09.933Z,15.84
2022-10-22T09:13:09.572Z,15.88
2022-10-22T09:14:11.301Z,15.92
2022-10-22T09:15:11.962Z,15.98
2022-10-22T09:16:12.174Z,16.03
2022-10-22T09:17:11.874Z,16.07
2022-10-22T09:18:10.733Z,16.14
2022-10-22T09:19:10.068Z,16.18
2022-10-22T09:20:10.974Z,16.26
2022-10-22T09:21:14.515Z,16.33
2022-10-22T09:22:11.994Z,16.40
2022-10-22T09:23:10.496Z,16.45
2022-10-22T09:24:11.394Z,16.52
2022-10-22T09:25:09.727Z,16.54
2022-10-22T09:26:09.975Z,16.52
2022-10-22T09:27:10.047Z,16.50
2022-10-22T09:28:11.351Z,16.47
2022-10-22T09:29:10.939Z,16.44
2022-10-22T09:30:10.004Z,16.37
2022-10-22T09:31:11.240Z,16.36
2022-10-22T09:32:11.438Z,16.34
2022-10-22T09:33:09.578Z,16.33
2022-10-22T09:34:12.973Z,16.30
2022-10-22T09:35:11.286Z,16.29
2022-10-22T09:36:16.728Z,16.30
2022-10-22T09:37:10.426Z,16.29
2022-10-22T09:38:10.737Z,16.26
2022-10-22T09:39:11.420Z,16.23
2022-10-22T09:40:15.655Z,16.23
2022-10-22T09:41:13.734Z,16.25
2022-10-22T09:44:07.160Z,16.27
2022-10-22T09:45:08.331Z,16.30
2022-10-22T09:46:08.547Z,16.30
2022-10-22T09:47:03.119Z,16.32
2022-10-22T09:48:09.282Z,16.33
2022-10-22T09:49:04.896Z,16.32
2022-10-22T10:00:31.758Z,16.27
2022-10-22T10:04:32.355Z,16.22
2022-10-22T10:07:58.227Z,16.16
2022-10-22T10:08:59.831Z,16.13
2022-10-22T10:10:00.842Z,16.11
2022-10-22T10:10:57.978Z,16.10
2022-10-22T10:12:01.530Z,16.08
2022-10-22T10:12:59.534Z,16.07
2022-10-22T10:14:00.049Z,16.07
2022-10-22T10:15:01.572Z,16.07
2022-10-22T10:16:06.982Z,16.08
2022-10-22T10:16:58.566Z,16.07
2022-10-22T10:17:58.208Z,16.06
2022-10-22T10:18:59.391Z,16.07
2022-10-22T10:20:01.447Z,16.04
2022-10-22T10:21:03.130Z,16.06
2022-10-22T10:34:04.385Z,16.25
2022-10-22T10:34:33.684Z,16.25
2022-10-22T10:35:35.217Z,16.25
2022-10-22T10:36:35.237Z,16.23
2022-10-22T10:37:35.224Z,16.25
2022-10-22T10:38:34.360Z,16.23
2022-10-22T10:39:35.485Z,16.26
2022-10-22T10:40:36.142Z,16.27
2022-10-22T10:46:02.699Z,16.29
2022-10-22T10:49:43.922Z,16.29
2022-10-22T10:50:39.315Z,16.29
2022-10-22T10:51:42.522Z,16.27
2022-10-22T10:52:39.887Z,16.29
2022-10-22T10:53:39.476Z,16.27
2022-10-22T10:55:40.502Z,16.26
2022-10-22T10:56:41.805Z,16.23
2022-10-22T10:57:39.988Z,16.23
2022-10-22T10:58:43.927Z,16.23
2022-10-22T11:02:27.100Z,16.23
2022-10-22T11:03:35.129Z,16.18
2022-10-22T11:05:42.887Z,16.17
2022-10-22T11:07:55.789Z,16.18
2022-10-22T11:08:52.192Z,16.22
2022-10-22T11:09:50.049Z,16.18
2022-10-22T11:10:49.974Z,16.23
2022-10-22T11:11:50.086Z,16.23
2022-10-22T11:12:50.273Z,16.23
2022-10-22T11:13:50.117Z,16.18
2022-10-22T11:14:51.049Z,16.23
2022-10-22T11:15:50.122Z,16.22
2022-10-22T11:16:50.006Z,16.25
2022-10-22T11:17:50.045Z,16.26
2022-10-22T11:18:49.864Z,16.26
2022-10-22T11:19:52.300Z,16.29
2022-10-22T11:20:49.853Z,16.32
2022-10-22T11:21:50.071Z,16.34
2022-10-22T11:23:16.910Z,16.36
2022-10-22T11:23:50.781Z,16.40
2022-10-22T11:24:51.600Z,16.42
2022-10-22T11:25:49.968Z,16.50
2022-10-22T11:26:49.748Z,16.50
2022-10-22T11:27:49.807Z,16.51
2022-10-22T11:28:49.986Z,16.51
2022-10-22T11:29:52.463Z,16.54
2022-10-22T11:30:59.198Z,16.55
2022-10-22T11:31:51.381Z,16.55
2022-10-22T11:32:52.867Z,16.57
2022-10-22T11:34:04.846Z,16.55
2022-10-22T11:34:52.524Z,16.55
2022-10-22T11:35:49.814Z,16.55
2022-10-22T11:36:49.664Z,16.57
2022-10-22T11:37:49.734Z,16.57
2022-10-22T11:38:49.933Z,16.59
2022-10-22T11:39:50.675Z,16.57
2022-10-22T11:40:49.961Z,16.59
2022-10-22T11:41:50.235Z,16.59
2022-10-22T11:42:51.395Z,16.55
2022-10-22T11:43:49.695Z,16.54
2022-10-22T11:50:45.874Z,16.52
2022-10-22T11:51:43.255Z,16.51
2022-10-22T11:52:46.221Z,16.48
2022-10-22T11:53:44.813Z,16.48
2022-10-22T11:54:45.306Z,16.47
2022-10-22T11:55:44.110Z,16.44
2022-10-22T11:56:43.370Z,16.44
2022-10-22T11:57:44.474Z,16.40
2022-10-22T11:58:44.033Z,16.42
2022-10-22T11:59:44.248Z,16.40
2022-10-22T12:00:43.257Z,16.37
2022-10-22T12:01:42.867Z,16.37
2022-10-22T12:02:46.389Z,16.36
2022-10-22T12:03:44.250Z,16.33
2022-10-22T12:04:44.060Z,16.33
2022-10-22T12:05:45.022Z,16.27
2022-10-22T12:06:53.117Z,16.26
2022-10-22T12:07:44.859Z,16.25
2022-10-22T12:08:47.525Z,16.17
2022-10-22T12:09:53.806Z,16.13
2022-10-22T12:10:43.177Z,16.08
2022-10-22T12:11:42.971Z,16.04
2022-10-22T12:12:44.107Z,16.01
2022-10-22T12:13:48.645Z,15.96
2022-10-22T12:14:50.159Z,15.92
2022-10-22T12:15:43.568Z,15.84
2022-10-22T12:16:55.865Z,15.73
2022-10-22T12:17:46.444Z,15.64
2022-10-22T12:18:44.062Z,15.56
2022-10-22T12:19:43.523Z,15.52
2022-10-22T12:20:42.906Z,15.48
2022-10-22T12:21:43.313Z,15.44
2022-10-22T12:22:44.919Z,15.40
2022-10-22T12:26:19.463Z,15.34
2022-10-22T12:27:14.705Z,15.34
2022-10-22T12:28:17.437Z,15.34
2022-10-22T12:29:13.514Z,15.33
2022-10-22T12:30:17.387Z,15.31
2022-10-22T12:31:12.479Z,15.31
2022-10-22T12:32:12.265Z,15.33
2022-10-22T12:33:14.294Z,15.33
2022-10-22T12:34:13.113Z,15.34
2022-10-22T12:35:12.359Z,15.40
2022-10-22T12:36:15.120Z,15.40
2022-10-22T12:37:14.366Z,15.37
2022-10-22T12:38:19.651Z,15.38
2022-10-22T12:43:07.003Z,15.43
2022-10-22T12:43:59.134Z,15.41
2022-10-22T12:45:00.045Z,15.43
2022-10-22T12:46:04.192Z,15.41
2022-10-22T12:47:03.275Z,15.40
2022-10-22T12:48:04.570Z,15.41
2022-10-22T12:49:08.531Z,15.41
2022-10-22T12:50:00.429Z,15.38
2022-10-22T12:51:05.010Z,15.40
2022-10-22T12:52:08.622Z,15.41
2022-10-22T12:53:00.069Z,15.44
2022-10-22T12:54:06.683Z,15.48
2022-10-22T12:55:02.921Z,15.49
2022-10-22T12:55:59.373Z,15.52
2022-10-22T12:56:58.855Z,15.53
2022-10-22T12:57:57.953Z,15.56
2022-10-22T12:58:59.195Z,15.56
2022-10-22T13:00:19.469Z,15.58
2022-10-22T13:01:00.268Z,15.58
2022-10-22T13:02:04.899Z,15.58
2022-10-22T13:03:00.518Z,15.58
2022-10-22T13:03:56.523Z,15.53
2022-10-22T13:05:04.293Z,15.52
2022-10-22T13:12:33.197Z,15.48
2022-10-22T13:13:07.667Z,15.44
2022-10-22T13:14:08.645Z,15.46
2022-10-22T13:15:09.498Z,15.46
2022-10-22T13:16:11.533Z,15.48
2022-10-22T13:17:15.364Z,15.48
2022-10-22T13:18:12.746Z,15.48
2022-10-22T13:19:19.894Z,15.49
2022-10-22T13:20:09.866Z,15.49
2022-10-22T13:21:11.803Z,15.48
2022-10-22T13:22:37.065Z,15.49
2022-10-22T13:23:17.843Z,15.49
2022-10-22T13:24:17.092Z,15.49
2022-10-22T13:25:12.159Z,15.48
2022-10-22T13:26:12.663Z,15.51
2022-10-22T13:27:13.363Z,15.48
2022-10-22T13:28:15.623Z,15.49
2022-10-22T13:29:16.496Z,15.48
2022-10-22T13:30:14.262Z,15.49
2022-10-22T13:31:21.322Z,15.48
2022-10-22T13:32:24.786Z,15.46
2022-10-22T13:33:38.837Z,15.44
2022-10-22T13:34:17.911Z,15.46
2022-10-22T13:35:14.759Z,15.44
2022-10-22T13:36:20.948Z,15.44
2022-10-22T13:37:16.790Z,15.46
2022-10-22T13:38:22.814Z,15.48
2022-10-22T13:39:39.861Z,15.44
2022-10-22T13:40:41.834Z,15.46
2022-10-22T13:41:33.260Z,15.48
2022-10-22T13:42:19.120Z,15.51
2022-10-22T13:43:16.021Z,15.51
2022-10-22T13:44:15.187Z,15.51
2022-10-22T13:45:11.540Z,15.53
2022-10-22T13:46:10.665Z,15.56
2022-10-22T13:47:18.823Z,15.58
2022-10-22T13:48:10.294Z,15.59
2022-10-22T13:49:08.628Z,15.59
2022-10-22T13:50:10.867Z,15.60
2022-10-22T13:51:08.509Z,15.64
2022-10-22T13:52:14.677Z,15.62
2022-10-22T13:53:17.685Z,15.67
2022-10-22T13:54:09.609Z,15.67
2022-10-22T13:55:09.883Z,15.70
2022-10-22T13:56:09.519Z,15.70